sensor_id;sensor_type;location;lat;lon;timestamp;P1;durP1;ratioP1;P2;durP2;ratioP2
69414;SDS011;56608;43.530;-5.652;2022-11-20T00:00:04;0.82;;;0.55;;
69414;SDS011;56608;43.530;-5.652;2022-11-20T00:01:07;0.80;;;0.45;;
69414;SDS011;56608;43.530;-5.652;2022-11-20T00:02:15;0.47;;;0.30;;
69414;SDS011;56608;43.530;-5.652;2022-11-20T00:03:16;0.50;;;0.40;;
69414;SDS011;56608;43.530;-5.652;2022-11-20T00:04:18;0.75;;;0.52;;
69414;SDS011;56608;43.530;-5.652;2022-11-20T00:05:19;0.30;;;0.30;;
69414;SDS011;56608;43.530;-5.652;2022-11-20T00:06:22;0.73;;;0.40;;
69414;SDS011;56608;43.530;-5.652;2022-11-20T00:07:24;0.40;;;0.40;;
69414;SDS011;56608;43.530;-5.652;2022-11-20T00:08:25;0.95;;;0.43;;
69414;SDS011;56608;43.530;-5.652;2022-11-20T00:09:26;5.05;;;3.20;;
69414;SDS011;56608;43.530;-5.652;2022-11-20T00:10:28;1.08;;;0.50;;
69414;SDS011;56608;43.530;-5.652;2022-11-20T00:11:30;0.70;;;0.50;;
69414;SDS011;56608;43.530;-5.652;2022-11-20T00:12:32;1.05;;;0.50;;
69414;SDS011;56608;43.530;-5.652;2022-11-20T00:14:35;0.57;;;0.45;;
69414;SDS011;56608;43.530;-5.652;2022-11-20T00:15:36;0.70;;;0.40;;
69414;SDS011;56608;43.530;-5.652;2022-11-20T00:16:37;1.00;;;0.60;;
69414;SDS011;56608;43.530;-5.652;2022-11-20T00:17:38;0.60;;;0.60;;
69414;SDS011;56608;43.530;-5.652;2022-11-20T00:18:40;0.50;;;0.50;;
69414;SDS011;56608;43.530;-5.652;2022-11-20T00:19:43;1.30;;;0.50;;
69414;SDS011;56608;43.530;-5.652;2022-11-20T00:20:44;2.85;;;0.50;;
69414;SDS011;56608;43.530;-5.652;2022-11-20T00:21:46;1.30;;;0.60;;
69414;SDS011;56608;43.530;-5.652;2022-11-20T00:22:47;0.80;;;0.60;;
69414;SDS011;56608;43.530;-5.652;2022-11-20T00:23:49;1.08;;;0.60;;
69414;SDS011;56608;43.530;-5.652;2022-11-20T00:24:51;0.80;;;0.60;;
69414;SDS011;56608;43.530;-5.652;2022-11-20T00:25:53;1.50;;;0.50;;
69414;SDS011;56608;43.530;-5.652;2022-11-20T00:26:54;1.20;;;0.50;;
69414;SDS011;56608;43.530;-5.652;2022-11-20T00:27:56;1.35;;;0.55;;
69414;SDS011;56608;43.530;-5.652;2022-11-20T00:28:58;2.15;;;0.60;;
69414;SDS011;56608;43.530;-5.652;2022-11-20T00:30:00;0.95;;;0.57;;
69414;SDS011;56608;43.530;-5.652;2022-11-20T00:31:04;0.65;;;0.60;;
69414;SDS011;56608;43.530;-5.652;2022-11-20T00:32:07;0.60;;;0.50;;
69414;SDS011;56608;43.530;-5.652;2022-11-20T00:33:09;0.95;;;0.60;;
69414;SDS011;56608;43.530;-5.652;2022-11-20T00:34:10;1.55;;;0.65;;
69414;SDS011;56608;43.530;-5.652;2022-11-20T00:35:11;1.85;;;0.60;;
69414;SDS011;56608;43.530;-5.652;2022-11-20T00:36:14;1.02;;;0.70;;
69414;SDS011;56608;43.530;-5.652;2022-11-20T00:37:17;1.27;;;0.60;;
69414;SDS011;56608;43.530;-5.652;2022-11-20T00:38:18;0.65;;;0.50;;
69414;SDS011;56608;43.530;-5.652;2022-11-20T00:39:20;1.13;;;0.77;;
69414;SDS011;56608;43.530;-5.652;2022-11-20T00:40:21;1.00;;;0.60;;
69414;SDS011;56608;43.530;-5.652;2022-11-20T00:41:22;0.60;;;0.50;;
69414;SDS011;56608;43.530;-5.652;2022-11-20T00:42:24;0.57;;;0.47;;
69414;SDS011;56608;43.530;-5.652;2022-11-20T00:43:25;0.62;;;0.43;;
69414;SDS011;56608;43.530;-5.652;2022-11-20T00:44:27;0.90;;;0.60;;
69414;SDS011;56608;43.530;-5.652;2022-11-20T00:45:29;0.70;;;0.60;;
69414;SDS011;56608;43.530;-5.652;2022-11-20T00:46:30;0.90;;;0.57;;
69414;SDS011;56608;43.530;-5.652;2022-11-20T00:47:31;0.50;;;0.50;;
69414;SDS011;56608;43.530;-5.652;2022-11-20T00:48:32;1.83;;;0.50;;
69414;SDS011;56608;43.530;-5.652;2022-11-20T00:49:34;0.68;;;0.50;;
69414;SDS011;56608;43.530;-5.652;2022-11-20T00:50:35;0.80;;;0.57;;
69414;SDS011;56608;43.530;-5.652;2022-11-20T00:51:37;0.90;;;0.55;;
69414;SDS011;56608;43.530;-5.652;2022-11-20T00:52:38;1.30;;;0.70;;
69414;SDS011;56608;43.530;-5.652;2022-11-20T00:53:40;0.65;;;0.50;;
69414;SDS011;56608;43.530;-5.652;2022-11-20T00:54:41;1.15;;;0.70;;
69414;SDS011;56608;43.530;-5.652;2022-11-20T00:55:42;0.55;;;0.50;;
69414;SDS011;56608;43.530;-5.652;2022-11-20T00:56:44;1.70;;;0.62;;
69414;SDS011;56608;43.530;-5.652;2022-11-20T00:57:45;2.08;;;0.65;;
69414;SDS011;56608;43.530;-5.652;2022-11-20T00:58:48;2.95;;;0.65;;
69414;SDS011;56608;43.530;-5.652;2022-11-20T00:59:49;1.23;;;0.57;;
69414;SDS011;56608;43.530;-5.652;2022-11-20T01:00:51;1.02;;;0.50;;
69414;SDS011;56608;43.530;-5.652;2022-11-20T01:01:52;0.57;;;0.47;;
69414;SDS011;56608;43.530;-5.652;2022-11-20T01:02:55;1.75;;;0.55;;
69414;SDS011;56608;43.530;-5.652;2022-11-20T01:03:57;0.50;;;0.47;;
69414;SDS011;56608;43.530;-5.652;2022-11-20T01:05:00;0.50;;;0.50;;
69414;SDS011;56608;43.530;-5.652;2022-11-20T01:06:02;1.23;;;0.60;;
69414;SDS011;56608;43.530;-5.652;2022-11-20T01:07:08;1.87;;;0.70;;
69414;SDS011;56608;43.530;-5.652;2022-11-20T01:08:09;0.47;;;0.45;;
69414;SDS011;56608;43.530;-5.652;2022-11-20T01:09:13;0.85;;;0.50;;
69414;SDS011;56608;43.530;-5.652;2022-11-20T01:10:15;1.62;;;0.60;;
69414;SDS011;56608;43.530;-5.652;2022-11-20T01:11:17;0.43;;;0.43;;
69414;SDS011;56608;43.530;-5.652;2022-11-20T01:12:20;2.05;;;0.50;;
69414;SDS011;56608;43.530;-5.652;2022-11-20T01:13:22;0.60;;;0.50;;
69414;SDS011;56608;43.530;-5.652;2022-11-20T01:14:38;1.40;;;0.52;;
69414;SDS011;56608;43.530;-5.652;2022-11-20T01:15:40;1.10;;;0.60;;
69414;SDS011;56608;43.530;-5.652;2022-11-20T01:16:42;0.90;;;0.50;;
69414;SDS011;56608;43.530;-5.652;2022-11-20T01:17:46;0.35;;;0.35;;
69414;SDS011;56608;43.530;-5.652;2022-11-20T01:18:49;1.75;;;0.60;;
69414;SDS011;56608;43.530;-5.652;2022-11-20T01:19:51;0.60;;;0.43;;
69414;SDS011;56608;43.530;-5.652;2022-11-20T01:20:53;1.45;;;0.65;;
69414;SDS011;56608;43.530;-5.652;2022-11-20T01:21:54;1.47;;;0.50;;
69414;SDS011;56608;43.530;-5.652;2022-11-20T01:22:56;0.80;;;0.40;;
69414;SDS011;56608;43.530;-5.652;2022-11-20T01:23:57;0.57;;;0.40;;
69414;SDS011;56608;43.530;-5.652;2022-11-20T01:24:59;0.75;;;0.50;;
69414;SDS011;56608;43.530;-5.652;2022-11-20T01:26:05;2.35;;;0.68;;
69414;SDS011;56608;43.530;-5.652;2022-11-20T01:27:08;0.88;;;0.50;;
69414;SDS011;56608;43.530;-5.652;2022-11-20T01:28:09;0.85;;;0.40;;
69414;SDS011;56608;43.530;-5.652;2022-11-20T01:29:18;0.95;;;0.40;;
69414;SDS011;56608;43.530;-5.652;2022-11-20T01:30:21;1.77;;;0.55;;
69414;SDS011;56608;43.530;-5.652;2022-11-20T01:32:26;0.70;;;0.50;;
69414;SDS011;56608;43.530;-5.652;2022-11-20T01:33:27;1.17;;;0.40;;
69414;SDS011;56608;43.530;-5.652;2022-11-20T01:34:29;1.02;;;0.50;;
69414;SDS011;56608;43.530;-5.652;2022-11-20T01:35:30;0.85;;;0.50;;
69414;SDS011;56608;43.530;-5.652;2022-11-20T01:36:32;1.93;;;0.67;;
69414;SDS011;56608;43.530;-5.652;2022-11-20T01:37:35;3.72;;;0.95;;
69414;SDS011;56608;43.530;-5.652;2022-11-20T01:38:37;1.23;;;0.47;;
69414;SDS011;56608;43.530;-5.652;2022-11-20T01:40:39;2.17;;;0.37;;
69414;SDS011;56608;43.530;-5.652;2022-11-20T01:41:41;1.12;;;0.50;;
69414;SDS011;56608;43.530;-5.652;2022-11-20T01:43:09;1.60;;;0.40;;
69414;SDS011;56608;43.530;-5.652;2022-11-20T01:44:47;1.15;;;0.40;;
69414;SDS011;56608;43.530;-5.652;2022-11-20T01:45:58;0.28;;;0.22;;
69414;SDS011;56608;43.530;-5.652;2022-11-20T01:47:03;0.70;;;0.40;;
69414;SDS011;56608;43.530;-5.652;2022-11-20T01:48:08;0.73;;;0.50;;
69414;SDS011;56608;43.530;-5.652;2022-11-20T01:49:24;0.50;;;0.40;;
69414;SDS011;56608;43.530;-5.652;2022-11-20T01:50:35;0.70;;;0.40;;
69414;SDS011;56608;43.530;-5.652;2022-11-20T01:51:41;0.40;;;0.30;;
69414;SDS011;56608;43.530;-5.652;2022-11-20T01:52:51;1.45;;;0.50;;
69414;SDS011;56608;43.530;-5.652;2022-11-20T01:54:06;2.05;;;0.60;;
69414;SDS011;56608;43.530;-5.652;2022-11-20T01:55:17;0.60;;;0.50;;
69414;SDS011;56608;43.530;-5.652;2022-11-20T01:56:22;0.30;;;0.30;;
69414;SDS011;56608;43.530;-5.652;2022-11-20T01:57:25;1.33;;;0.50;;
69414;SDS011;56608;43.530;-5.652;2022-11-20T01:58:32;0.30;;;0.30;;
69414;SDS011;56608;43.530;-5.652;2022-11-20T01:59:37;1.10;;;0.50;;
69414;SDS011;56608;43.530;-5.652;2022-11-20T02:00:41;0.20;;;0.20;;
69414;SDS011;56608;43.530;-5.652;2022-11-20T02:01:43;3.37;;;0.60;;
69414;SDS011;56608;43.530;-5.652;2022-11-20T02:02:47;0.55;;;0.40;;
69414;SDS011;56608;43.530;-5.652;2022-11-20T02:03:52;0.50;;;0.40;;
69414;SDS011;56608;43.530;-5.652;2022-11-20T02:04:54;0.43;;;0.32;;
69414;SDS011;56608;43.530;-5.652;2022-11-20T02:06:35;0.45;;;0.40;;
69414;SDS011;56608;43.530;-5.652;2022-11-20T02:07:36;0.40;;;0.40;;
69414;SDS011;56608;43.530;-5.652;2022-11-20T02:08:38;1.15;;;0.40;;
69414;SDS011;56608;43.530;-5.652;2022-11-20T02:09:39;0.50;;;0.30;;
69414;SDS011;56608;43.530;-5.652;2022-11-20T02:10:41;0.45;;;0.30;;
69414;SDS011;56608;43.530;-5.652;2022-11-20T02:11:42;0.43;;;0.40;;
69414;SDS011;56608;43.530;-5.652;2022-11-20T02:12:44;0.70;;;0.35;;
69414;SDS011;56608;43.530;-5.652;2022-11-20T02:14:04;0.57;;;0.25;;
69414;SDS011;56608;43.530;-5.652;2022-11-20T02:15:05;1.65;;;0.50;;
69414;SDS011;56608;43.530;-5.652;2022-11-20T02:16:10;0.60;;;0.40;;
69414;SDS011;56608;43.530;-5.652;2022-11-20T02:17:14;0.65;;;0.37;;
69414;SDS011;56608;43.530;-5.652;2022-11-20T02:18:17;0.80;;;0.45;;
69414;SDS011;56608;43.530;-5.652;2022-11-20T02:19:30;0.52;;;0.40;;
69414;SDS011;56608;43.530;-5.652;2022-11-20T02:21:35;0.52;;;0.35;;
69414;SDS011;56608;43.530;-5.652;2022-11-20T02:22:44;0.60;;;0.45;;
69414;SDS011;56608;43.530;-5.652;2022-11-20T02:25:06;0.90;;;0.40;;
69414;SDS011;56608;43.530;-5.652;2022-11-20T02:26:10;0.60;;;0.40;;
69414;SDS011;56608;43.530;-5.652;2022-11-20T02:27:14;1.20;;;0.50;;
69414;SDS011;56608;43.530;-5.652;2022-11-20T02:28:17;2.15;;;0.50;;
69414;SDS011;56608;43.530;-5.652;2022-11-20T02:30:24;0.70;;;0.50;;
69414;SDS011;56608;43.530;-5.652;2022-11-20T02:31:25;0.57;;;0.40;;
69414;SDS011;56608;43.530;-5.652;2022-11-20T02:33:29;0.88;;;0.40;;
69414;SDS011;56608;43.530;-5.652;2022-11-20T02:34:30;0.80;;;0.40;;
69414;SDS011;56608;43.530;-5.652;2022-11-20T02:36:33;0.40;;;0.40;;
69414;SDS011;56608;43.530;-5.652;2022-11-20T02:37:37;0.50;;;0.50;;
69414;SDS011;56608;43.530;-5.652;2022-11-20T02:38:41;0.65;;;0.43;;
69414;SDS011;56608;43.530;-5.652;2022-11-20T02:39:44;0.60;;;0.37;;
69414;SDS011;56608;43.530;-5.652;2022-11-20T02:40:48;0.47;;;0.30;;
69414;SDS011;56608;43.530;-5.652;2022-11-20T02:41:49;0.98;;;0.25;;
69414;SDS011;56608;43.530;-5.652;2022-11-20T02:42:55;0.30;;;0.30;;
69414;SDS011;56608;43.530;-5.652;2022-11-20T02:43:57;1.05;;;0.40;;
69414;SDS011;56608;43.530;-5.652;2022-11-20T02:44:58;1.45;;;0.37;;
69414;SDS011;56608;43.530;-5.652;2022-11-20T02:46:00;0.70;;;0.60;;
69414;SDS011;56608;43.530;-5.652;2022-11-20T02:47:01;1.75;;;0.30;;
69414;SDS011;56608;43.530;-5.652;2022-11-20T02:48:03;0.80;;;0.40;;
69414;SDS011;56608;43.530;-5.652;2022-11-20T02:49:06;0.73;;;0.30;;
69414;SDS011;56608;43.530;-5.652;2022-11-20T02:50:07;0.47;;;0.40;;
69414;SDS011;56608;43.530;-5.652;2022-11-20T02:52:10;0.40;;;0.30;;
69414;SDS011;56608;43.530;-5.652;2022-11-20T02:53:11;0.68;;;0.40;;
69414;SDS011;56608;43.530;-5.652;2022-11-20T02:54:13;0.32;;;0.30;;
69414;SDS011;56608;43.530;-5.652;2022-11-20T02:55:14;0.52;;;0.32;;
69414;SDS011;56608;43.530;-5.652;2022-11-20T02:56:15;0.30;;;0.30;;
69414;SDS011;56608;43.530;-5.652;2022-11-20T02:57:17;0.22;;;0.20;;
69414;SDS011;56608;43.530;-5.652;2022-11-20T02:58:18;1.33;;;0.28;;
69414;SDS011;56608;43.530;-5.652;2022-11-20T02:59:19;0.30;;;0.30;;
69414;SDS011;56608;43.530;-5.652;2022-11-20T03:00:21;0.50;;;0.40;;
69414;SDS011;56608;43.530;-5.652;2022-11-20T03:01:22;0.65;;;0.35;;
69414;SDS011;56608;43.530;-5.652;2022-11-20T03:02:24;0.30;;;0.30;;
69414;SDS011;56608;43.530;-5.652;2022-11-20T03:03:25;0.52;;;0.32;;
69414;SDS011;56608;43.530;-5.652;2022-11-20T03:04:26;0.40;;;0.32;;
69414;SDS011;56608;43.530;-5.652;2022-11-20T03:05:28;1.92;;;0.70;;
69414;SDS011;56608;43.530;-5.652;2022-11-20T03:06:29;0.70;;;0.30;;
69414;SDS011;56608;43.530;-5.652;2022-11-20T03:07:30;0.95;;;0.40;;
69414;SDS011;56608;43.530;-5.652;2022-11-20T03:08:32;0.75;;;0.30;;
69414;SDS011;56608;43.530;-5.652;2022-11-20T03:09:32;0.60;;;0.40;;
69414;SDS011;56608;43.530;-5.652;2022-11-20T03:10:34;1.40;;;0.30;;
69414;SDS011;56608;43.530;-5.652;2022-11-20T03:11:35;0.68;;;0.40;;
69414;SDS011;56608;43.530;-5.652;2022-11-20T03:12:37;0.40;;;0.30;;
69414;SDS011;56608;43.530;-5.652;2022-11-20T03:13:38;1.02;;;0.35;;
69414;SDS011;56608;43.530;-5.652;2022-11-20T03:14:40;0.37;;;0.22;;
69414;SDS011;56608;43.530;-5.652;2022-11-20T03:15:41;0.20;;;0.20;;
69414;SDS011;56608;43.530;-5.652;2022-11-20T03:16:41;0.67;;;0.30;;
69414;SDS011;56608;43.530;-5.652;2022-11-20T03:17:43;0.30;;;0.20;;
69414;SDS011;56608;43.530;-5.652;2022-11-20T03:18:45;1.10;;;0.40;;
69414;SDS011;56608;43.530;-5.652;2022-11-20T03:20:46;0.40;;;0.30;;
69414;SDS011;56608;43.530;-5.652;2022-11-20T03:21:48;0.65;;;0.22;;
69414;SDS011;56608;43.530;-5.652;2022-11-20T03:22:49;0.65;;;0.30;;
69414;SDS011;56608;43.530;-5.652;2022-11-20T03:23:52;0.55;;;0.30;;
69414;SDS011;56608;43.530;-5.652;2022-11-20T03:24:54;0.20;;;0.20;;
69414;SDS011;56608;43.530;-5.652;2022-11-20T03:25:56;0.57;;;0.40;;
69414;SDS011;56608;43.530;-5.652;2022-11-20T03:27:08;0.30;;;0.20;;
69414;SDS011;56608;43.530;-5.652;2022-11-20T03:28:09;0.20;;;0.20;;
69414;SDS011;56608;43.530;-5.652;2022-11-20T03:29:10;0.75;;;0.20;;
69414;SDS011;56608;43.530;-5.652;2022-11-20T03:30:12;0.70;;;0.30;;
69414;SDS011;56608;43.530;-5.652;2022-11-20T03:31:15;0.80;;;0.30;;
69414;SDS011;56608;43.530;-5.652;2022-11-20T03:32:17;0.55;;;0.30;;
69414;SDS011;56608;43.530;-5.652;2022-11-20T03:33:19;0.40;;;0.20;;
69414;SDS011;56608;43.530;-5.652;2022-11-20T03:34:20;0.30;;;0.25;;
69414;SDS011;56608;43.530;-5.652;2022-11-20T03:35:21;1.65;;;0.40;;
69414;SDS011;56608;43.530;-5.652;2022-11-20T03:36:23;0.20;;;0.20;;
69414;SDS011;56608;43.530;-5.652;2022-11-20T03:38:28;0.75;;;0.37;;
69414;SDS011;56608;43.530;-5.652;2022-11-20T03:39:30;1.12;;;0.20;;
69414;SDS011;56608;43.530;-5.652;2022-11-20T03:40:31;2.05;;;0.45;;
69414;SDS011;56608;43.530;-5.652;2022-11-20T03:41:36;1.10;;;0.37;;
69414;SDS011;56608;43.530;-5.652;2022-11-20T03:42:39;1.45;;;0.55;;
69414;SDS011;56608;43.530;-5.652;2022-11-20T03:43:50;0.73;;;0.20;;
69414;SDS011;56608;43.530;-5.652;2022-11-20T03:44:53;0.35;;;0.20;;
69414;SDS011;56608;43.530;-5.652;2022-11-20T03:45:54;0.50;;;0.30;;
69414;SDS011;56608;43.530;-5.652;2022-11-20T03:46:56;0.30;;;0.30;;
69414;SDS011;56608;43.530;-5.652;2022-11-20T03:47:57;0.30;;;0.30;;
69414;SDS011;56608;43.530;-5.652;2022-11-20T03:48:59;2.75;;;0.28;;
69414;SDS011;56608;43.530;-5.652;2022-11-20T03:50:00;0.52;;;0.20;;
69414;SDS011;56608;43.530;-5.652;2022-11-20T03:53:14;2.00;;;0.30;;
69414;SDS011;56608;43.530;-5.652;2022-11-20T03:54:16;1.40;;;0.30;;
69414;SDS011;56608;43.530;-5.652;2022-11-20T03:55:17;0.30;;;0.25;;
69414;SDS011;56608;43.530;-5.652;2022-11-20T03:56:20;0.20;;;0.20;;
69414;SDS011;56608;43.530;-5.652;2022-11-20T03:57:23;2.30;;;0.40;;
69414;SDS011;56608;43.530;-5.652;2022-11-20T03:58:25;0.37;;;0.28;;
69414;SDS011;56608;43.530;-5.652;2022-11-20T03:59:26;0.20;;;0.20;;
69414;SDS011;56608;43.530;-5.652;2022-11-20T04:00:27;1.35;;;0.22;;
69414;SDS011;56608;43.530;-5.652;2022-11-20T04:01:31;0.40;;;0.30;;
69414;SDS011;56608;43.530;-5.652;2022-11-20T04:02:36;0.30;;;0.30;;
69414;SDS011;56608;43.530;-5.652;2022-11-20T04:03:38;0.37;;;0.22;;
69414;SDS011;56608;43.530;-5.652;2022-11-20T04:04:40;0.40;;;0.30;;
69414;SDS011;56608;43.530;-5.652;2022-11-20T04:05:41;1.10;;;0.20;;
69414;SDS011;56608;43.530;-5.652;2022-11-20T04:06:43;1.87;;;0.30;;
69414;SDS011;56608;43.530;-5.652;2022-11-20T04:07:44;0.20;;;0.20;;
69414;SDS011;56608;43.530;-5.652;2022-11-20T04:08:46;0.62;;;0.30;;
69414;SDS011;56608;43.530;-5.652;2022-11-20T04:09:47;0.40;;;0.30;;
69414;SDS011;56608;43.530;-5.652;2022-11-20T04:10:49;1.17;;;0.20;;
69414;SDS011;56608;43.530;-5.652;2022-11-20T04:11:50;0.65;;;0.30;;
69414;SDS011;56608;43.530;-5.652;2022-11-20T04:12:52;1.48;;;0.40;;
69414;SDS011;56608;43.530;-5.652;2022-11-20T04:13:54;1.65;;;0.50;;
69414;SDS011;56608;43.530;-5.652;2022-11-20T04:14:58;0.20;;;0.20;;
69414;SDS011;56608;43.530;-5.652;2022-11-20T04:15:58;0.40;;;0.20;;
69414;SDS011;56608;43.530;-5.652;2022-11-20T04:17:00;0.50;;;0.30;;
69414;SDS011;56608;43.530;-5.652;2022-11-20T04:18:02;0.20;;;0.20;;
69414;SDS011;56608;43.530;-5.652;2022-11-20T04:19:04;0.40;;;0.30;;
69414;SDS011;56608;43.530;-5.652;2022-11-20T04:20:08;0.57;;;0.35;;
69414;SDS011;56608;43.530;-5.652;2022-11-20T04:21:09;1.02;;;0.30;;
69414;SDS011;56608;43.530;-5.652;2022-11-20T04:22:11;1.12;;;0.35;;
69414;SDS011;56608;43.530;-5.652;2022-11-20T04:23:13;0.57;;;0.30;;
69414;SDS011;56608;43.530;-5.652;2022-11-20T04:24:13;0.75;;;0.30;;
69414;SDS011;56608;43.530;-5.652;2022-11-20T04:25:15;1.23;;;0.20;;
69414;SDS011;56608;43.530;-5.652;2022-11-20T04:26:16;0.90;;;0.30;;
69414;SDS011;56608;43.530;-5.652;2022-11-20T04:27:18;0.20;;;0.20;;
69414;SDS011;56608;43.530;-5.652;2022-11-20T04:28:19;0.40;;;0.30;;
69414;SDS011;56608;43.530;-5.652;2022-11-20T04:29:21;1.62;;;0.40;;
69414;SDS011;56608;43.530;-5.652;2022-11-20T04:30:22;1.08;;;0.40;;
69414;SDS011;56608;43.530;-5.652;2022-11-20T04:31:27;1.33;;;0.40;;
69414;SDS011;56608;43.530;-5.652;2022-11-20T04:32:30;0.40;;;0.30;;
69414;SDS011;56608;43.530;-5.652;2022-11-20T04:33:32;0.30;;;0.30;;
69414;SDS011;56608;43.530;-5.652;2022-11-20T04:34:34;0.82;;;0.30;;
69414;SDS011;56608;43.530;-5.652;2022-11-20T04:35:35;3.20;;;0.30;;
69414;SDS011;56608;43.530;-5.652;2022-11-20T04:36:37;2.03;;;0.30;;
69414;SDS011;56608;43.530;-5.652;2022-11-20T04:37:39;0.93;;;0.30;;
69414;SDS011;56608;43.530;-5.652;2022-11-20T04:38:40;0.30;;;0.20;;
69414;SDS011;56608;43.530;-5.652;2022-11-20T04:39:42;0.95;;;0.40;;
69414;SDS011;56608;43.530;-5.652;2022-11-20T04:40:44;1.17;;;0.22;;
69414;SDS011;56608;43.530;-5.652;2022-11-20T04:41:45;0.40;;;0.40;;
69414;SDS011;56608;43.530;-5.652;2022-11-20T04:42:47;0.55;;;0.40;;
69414;SDS011;56608;43.530;-5.652;2022-11-20T04:43:49;0.22;;;0.22;;
69414;SDS011;56608;43.530;-5.652;2022-11-20T04:44:52;0.37;;;0.37;;
69414;SDS011;56608;43.530;-5.652;2022-11-20T04:45:53;0.40;;;0.40;;
69414;SDS011;56608;43.530;-5.652;2022-11-20T04:46:56;0.77;;;0.30;;
69414;SDS011;56608;43.530;-5.652;2022-11-20T04:47:56;0.30;;;0.30;;
69414;SDS011;56608;43.530;-5.652;2022-11-20T04:48:58;0.40;;;0.30;;
69414;SDS011;56608;43.530;-5.652;2022-11-20T04:49:59;2.97;;;0.50;;
69414;SDS011;56608;43.530;-5.652;2022-11-20T04:51:04;0.30;;;0.30;;
69414;SDS011;56608;43.530;-5.652;2022-11-20T04:52:06;0.30;;;0.20;;
69414;SDS011;56608;43.530;-5.652;2022-11-20T04:53:07;2.08;;;0.30;;
69414;SDS011;56608;43.530;-5.652;2022-11-20T04:54:09;0.43;;;0.32;;
69414;SDS011;56608;43.530;-5.652;2022-11-20T04:55:12;0.98;;;0.30;;
69414;SDS011;56608;43.530;-5.652;2022-11-20T04:56:13;2.15;;;0.30;;
69414;SDS011;56608;43.530;-5.652;2022-11-20T04:57:15;0.40;;;0.20;;
69414;SDS011;56608;43.530;-5.652;2022-11-20T04:58:16;0.68;;;0.40;;
69414;SDS011;56608;43.530;-5.652;2022-11-20T04:59:18;2.20;;;0.32;;
69414;SDS011;56608;43.530;-5.652;2022-11-20T05:00:19;1.17;;;0.30;;
69414;SDS011;56608;43.530;-5.652;2022-11-20T05:01:22;1.33;;;0.40;;
69414;SDS011;56608;43.530;-5.652;2022-11-20T05:02:24;0.30;;;0.30;;
69414;SDS011;56608;43.530;-5.652;2022-11-20T05:03:25;0.23;;;0.23;;
69414;SDS011;56608;43.530;-5.652;2022-11-20T05:04:27;0.40;;;0.40;;
69414;SDS011;56608;43.530;-5.652;2022-11-20T05:05:28;0.32;;;0.30;;
69414;SDS011;56608;43.530;-5.652;2022-11-20T05:06:28;1.17;;;0.30;;
69414;SDS011;56608;43.530;-5.652;2022-11-20T05:07:30;0.85;;;0.30;;
69414;SDS011;56608;43.530;-5.652;2022-11-20T05:08:32;0.30;;;0.20;;
69414;SDS011;56608;43.530;-5.652;2022-11-20T05:09:34;0.25;;;0.22;;
69414;SDS011;56608;43.530;-5.652;2022-11-20T05:10:35;0.30;;;0.30;;
69414;SDS011;56608;43.530;-5.652;2022-11-20T05:11:36;0.52;;;0.40;;
69414;SDS011;56608;43.530;-5.652;2022-11-20T05:12:37;0.40;;;0.40;;
69414;SDS011;56608;43.530;-5.652;2022-11-20T05:13:39;0.80;;;0.40;;
69414;SDS011;56608;43.530;-5.652;2022-11-20T05:14:42;0.40;;;0.32;;
69414;SDS011;56608;43.530;-5.652;2022-11-20T05:15:43;0.70;;;0.30;;
69414;SDS011;56608;43.530;-5.652;2022-11-20T05:16:43;1.50;;;0.40;;
69414;SDS011;56608;43.530;-5.652;2022-11-20T05:17:49;0.30;;;0.30;;
69414;SDS011;56608;43.530;-5.652;2022-11-20T05:18:52;0.70;;;0.28;;
69414;SDS011;56608;43.530;-5.652;2022-11-20T05:19:55;0.50;;;0.30;;
69414;SDS011;56608;43.530;-5.652;2022-11-20T05:20:57;1.17;;;0.30;;
69414;SDS011;56608;43.530;-5.652;2022-11-20T05:21:59;1.40;;;0.30;;
69414;SDS011;56608;43.530;-5.652;2022-11-20T05:23:00;0.22;;;0.22;;
69414;SDS011;56608;43.530;-5.652;2022-11-20T05:24:01;0.35;;;0.32;;
69414;SDS011;56608;43.530;-5.652;2022-11-20T05:25:03;0.50;;;0.30;;
69414;SDS011;56608;43.530;-5.652;2022-11-20T05:26:05;1.85;;;0.30;;
69414;SDS011;56608;43.530;-5.652;2022-11-20T05:27:08;0.68;;;0.20;;
69414;SDS011;56608;43.530;-5.652;2022-11-20T05:28:10;0.40;;;0.30;;
69414;SDS011;56608;43.530;-5.652;2022-11-20T05:29:11;1.90;;;0.40;;
69414;SDS011;56608;43.530;-5.652;2022-11-20T05:31:15;0.30;;;0.30;;
69414;SDS011;56608;43.530;-5.652;2022-11-20T05:32:18;1.20;;;0.55;;
69414;SDS011;56608;43.530;-5.652;2022-11-20T05:33:20;1.02;;;0.40;;
69414;SDS011;56608;43.530;-5.652;2022-11-20T05:35:23;0.35;;;0.30;;
69414;SDS011;56608;43.530;-5.652;2022-11-20T05:36:24;0.68;;;0.50;;
69414;SDS011;56608;43.530;-5.652;2022-11-20T05:37:26;1.48;;;0.50;;
69414;SDS011;56608;43.530;-5.652;2022-11-20T05:38:27;0.52;;;0.32;;
69414;SDS011;56608;43.530;-5.652;2022-11-20T05:39:29;0.50;;;0.50;;
69414;SDS011;56608;43.530;-5.652;2022-11-20T05:40:30;0.75;;;0.50;;
69414;SDS011;56608;43.530;-5.652;2022-11-20T05:41:32;0.85;;;0.50;;
69414;SDS011;56608;43.530;-5.652;2022-11-20T05:42:34;1.48;;;0.30;;
69414;SDS011;56608;43.530;-5.652;2022-11-20T05:43:37;3.12;;;0.60;;
69414;SDS011;56608;43.530;-5.652;2022-11-20T05:44:39;0.60;;;0.50;;
69414;SDS011;56608;43.530;-5.652;2022-11-20T05:45:40;0.50;;;0.47;;
69414;SDS011;56608;43.530;-5.652;2022-11-20T05:46:41;0.40;;;0.30;;
69414;SDS011;56608;43.530;-5.652;2022-11-20T05:47:43;0.60;;;0.60;;
69414;SDS011;56608;43.530;-5.652;2022-11-20T05:48:45;0.50;;;0.40;;
69414;SDS011;56608;43.530;-5.652;2022-11-20T05:49:46;1.12;;;0.50;;
69414;SDS011;56608;43.530;-5.652;2022-11-20T05:50:48;0.70;;;0.50;;
69414;SDS011;56608;43.530;-5.652;2022-11-20T05:51:49;0.50;;;0.50;;
69414;SDS011;56608;43.530;-5.652;2022-11-20T05:52:50;1.13;;;0.60;;
69414;SDS011;56608;43.530;-5.652;2022-11-20T05:53:51;2.15;;;0.60;;
69414;SDS011;56608;43.530;-5.652;2022-11-20T05:54:53;2.70;;;0.90;;
69414;SDS011;56608;43.530;-5.652;2022-11-20T05:56:01;1.75;;;0.80;;
69414;SDS011;56608;43.530;-5.652;2022-11-20T05:57:02;2.35;;;0.90;;
69414;SDS011;56608;43.530;-5.652;2022-11-20T05:58:04;1.35;;;0.70;;
69414;SDS011;56608;43.530;-5.652;2022-11-20T05:59:05;3.47;;;0.83;;
69414;SDS011;56608;43.530;-5.652;2022-11-20T06:00:07;3.03;;;0.90;;
69414;SDS011;56608;43.530;-5.652;2022-11-20T06:02:20;2.92;;;0.73;;
69414;SDS011;56608;43.530;-5.652;2022-11-20T06:03:21;2.95;;;0.70;;
69414;SDS011;56608;43.530;-5.652;2022-11-20T06:04:22;3.80;;;0.85;;
69414;SDS011;56608;43.530;-5.652;2022-11-20T06:05:24;3.28;;;1.05;;
69414;SDS011;56608;43.530;-5.652;2022-11-20T06:06:25;3.00;;;0.88;;
69414;SDS011;56608;43.530;-5.652;2022-11-20T06:07:27;3.20;;;0.88;;
69414;SDS011;56608;43.530;-5.652;2022-11-20T06:08:28;3.62;;;0.85;;
69414;SDS011;56608;43.530;-5.652;2022-11-20T06:10:31;2.87;;;0.70;;
69414;SDS011;56608;43.530;-5.652;2022-11-20T06:11:32;4.55;;;0.85;;
69414;SDS011;56608;43.530;-5.652;2022-11-20T06:12:33;2.55;;;0.60;;
69414;SDS011;56608;43.530;-5.652;2022-11-20T06:13:35;5.28;;;1.00;;
69414;SDS011;56608;43.530;-5.652;2022-11-20T06:14:37;4.78;;;0.95;;
69414;SDS011;56608;43.530;-5.652;2022-11-20T06:15:38;4.40;;;0.98;;
69414;SDS011;56608;43.530;-5.652;2022-11-20T06:16:40;2.90;;;0.60;;
69414;SDS011;56608;43.530;-5.652;2022-11-20T06:17:41;5.85;;;0.90;;
69414;SDS011;56608;43.530;-5.652;2022-11-20T06:18:42;3.40;;;0.90;;
69414;SDS011;56608;43.530;-5.652;2022-11-20T06:19:44;4.33;;;0.90;;
69414;SDS011;56608;43.530;-5.652;2022-11-20T06:20:45;3.15;;;0.70;;
69414;SDS011;56608;43.530;-5.652;2022-11-20T06:21:47;8.07;;;1.07;;
69414;SDS011;56608;43.530;-5.652;2022-11-20T06:22:50;3.28;;;0.70;;
69414;SDS011;56608;43.530;-5.652;2022-11-20T06:23:51;3.55;;;0.80;;
69414;SDS011;56608;43.530;-5.652;2022-11-20T06:24:53;4.87;;;1.20;;
69414;SDS011;56608;43.530;-5.652;2022-11-20T06:25:54;4.35;;;1.23;;
69414;SDS011;56608;43.530;-5.652;2022-11-20T06:26:56;8.18;;;2.92;;
69414;SDS011;56608;43.530;-5.652;2022-11-20T06:27:57;7.68;;;2.87;;
69414;SDS011;56608;43.530;-5.652;2022-11-20T06:28:59;15.13;;;6.00;;